createdAt,value
2022-11-23T00:01:39.473Z,1.60
2022-11-23T00:04:09.380Z,1.50
2022-11-23T00:06:37.974Z,1.70
2022-11-23T00:09:06.588Z,1.70
2022-11-23T00:11:36.342Z,1.43
2022-11-23T00:14:04.953Z,1.50
2022-11-23T00:16:34.480Z,1.50
2022-11-23T00:19:03.624Z,1.30
2022-11-23T00:21:33.804Z,1.50
2022-11-23T00:24:02.448Z,1.60
2022-11-23T00:26:30.993Z,1.37
2022-11-23T00:28:59.631Z,1.20
2022-11-23T00:31:28.541Z,1.30
2022-11-23T00:33:58.897Z,1.57
2022-11-23T00:36:28.049Z,1.60
2022-11-23T00:38:57.827Z,1.40
2022-11-23T00:41:28.077Z,1.60
2022-11-23T00:43:56.359Z,1.17
2022-11-23T00:46:25.822Z,1.60
2022-11-23T00:48:55.297Z,1.43
2022-11-23T00:51:27.104Z,1.20
2022-11-23T00:53:55.279Z,1.30
2022-11-23T00:56:25.441Z,1.30
2022-11-23T00:58:55.103Z,1.47
2022-11-23T01:01:25.404Z,1.57
2022-11-23T01:03:55.925Z,1.17
2022-11-23T01:06:27.894Z,1.40
2022-11-23T01:08:58.380Z,1.50
2022-11-23T01:11:28.896Z,1.30
2022-11-23T01:13:57.222Z,1.40
2022-11-23T01:16:28.762Z,1.40
2022-11-23T01:18:57.788Z,1.80
2022-11-23T01:21:29.484Z,1.53
2022-11-23T01:23:58.351Z,1.57
2022-11-23T01:26:26.948Z,1.73
2022-11-23T01:28:58.528Z,1.50
2022-11-23T01:31:27.631Z,1.50
2022-11-23T01:33:56.844Z,1.33
2022-11-23T01:36:28.055Z,1.30
2022-11-23T01:38:56.733Z,1.53
2022-11-23T01:41:26.884Z,1.27
2022-11-23T01:43:55.604Z,1.73
2022-11-23T01:46:23.891Z,1.40
2022-11-23T01:48:56.765Z,1.57
2022-11-23T01:51:30.587Z,1.30
2022-11-23T01:54:03.710Z,1.40
2022-11-23T01:56:36.680Z,1.40
2022-11-23T01:59:10.846Z,1.50
2022-11-23T02:01:39.098Z,1.53
2022-11-23T02:04:10.137Z,1.40
2022-11-23T02:06:42.237Z,1.27
2022-11-23T02:09:10.351Z,1.37
2022-11-23T02:11:38.959Z,1.43
2022-11-23T02:14:07.076Z,1.20
2022-11-23T02:16:35.139Z,1.60
2022-11-23T02:19:03.170Z,1.20
2022-11-23T02:21:31.295Z,1.60
2022-11-23T02:24:07.272Z,1.50
2022-11-23T02:26:39.894Z,1.80
2022-11-23T02:29:12.991Z,1.70
2022-11-23T02:31:41.238Z,1.40
2022-11-23T02:34:09.393Z,1.53
2022-11-23T02:36:42.040Z,1.47
2022-11-23T02:39:12.996Z,1.10
2022-11-23T02:41:45.102Z,1.37
2022-11-23T02:44:26.560Z,1.30
2022-11-23T02:46:55.500Z,1.60
2022-11-23T02:49:23.738Z,1.60
2022-11-23T02:51:52.739Z,1.60
2022-11-23T02:54:21.375Z,1.57
2022-11-23T02:56:51.114Z,1.33
2022-11-23T02:59:20.041Z,1.50
2022-11-23T03:01:48.843Z,1.50
2022-11-23T03:04:16.927Z,1.47
2022-11-23T03:06:46.216Z,1.47
2022-11-23T03:09:14.650Z,1.37
2022-11-23T03:11:43.241Z,1.77
2022-11-23T03:14:12.761Z,2.13
2022-11-23T03:16:50.493Z,1.83
2022-11-23T03:19:20.046Z,1.70
2022-11-23T03:21:49.578Z,1.60
2022-11-23T03:24:17.864Z,1.63
2022-11-23T03:26:47.492Z,2.03
2022-11-23T03:29:25.664Z,1.60
2022-11-23T03:31:55.691Z,1.93
2022-11-23T03:34:24.453Z,1.53
2022-11-23T03:36:53.229Z,2.10
2022-11-23T03:39:21.994Z,1.60
2022-11-23T03:42:28.195Z,1.60
2022-11-23T03:44:58.951Z,1.83
2022-11-23T03:47:27.176Z,2.57
2022-11-23T03:49:55.396Z,2.00
2022-11-23T03:52:23.459Z,2.00
2022-11-23T03:54:51.607Z,1.97
2022-11-23T03:57:19.796Z,2.30
2022-11-23T03:59:50.133Z,1.83
2022-11-23T04:02:20.073Z,2.07
2022-11-23T04:04:59.451Z,2.17
2022-11-23T04:07:50.651Z,2.00
2022-11-23T04:10:20.525Z,2.17
2022-11-23T04:13:14.905Z,2.10
2022-11-23T04:15:42.916Z,2.10
2022-11-23T04:18:12.754Z,2.03
2022-11-23T04:20:41.068Z,1.73
2022-11-23T04:23:13.109Z,2.00
2022-11-23T04:25:42.116Z,1.80
2022-11-23T04:28:10.838Z,1.87
2022-11-23T04:30:39.380Z,1.83
2022-11-23T04:33:14.068Z,1.87
2022-11-23T04:35:43.525Z,1.73
2022-11-23T04:38:14.163Z,1.73
2022-11-23T04:41:30.161Z,1.63
2022-11-23T04:43:59.807Z,1.73
2022-11-23T04:46:28.790Z,1.90
2022-11-23T04:49:01.326Z,1.70
2022-11-23T04:51:30.009Z,1.90
2022-11-23T04:53:58.552Z,1.80
2022-11-23T04:56:29.700Z,1.73
2022-11-23T04:58:58.865Z,1.63
2022-11-23T05:01:27.388Z,2.00
2022-11-23T05:04:18.074Z,1.53
2022-11-23T05:06:48.555Z,1.57
2022-11-23T05:09:17.283Z,1.40
2022-11-23T05:12:01.909Z,1.77
2022-11-23T05:14:32.161Z,2.07
2022-11-23T05:17:00.652Z,1.53
2022-11-23T05:19:30.968Z,2.07
2022-11-23T05:21:59.984Z,2.10
2022-11-23T05:24:29.331Z,1.77
2022-11-23T05:27:11.574Z,2.03
2022-11-23T05:29:42.072Z,2.10
2022-11-23T05:32:10.497Z,2.07
2022-11-23T05:34:41.326Z,1.70
2022-11-23T05:37:11.956Z,1.90
2022-11-23T05:39:50.162Z,1.70
2022-11-23T05:42:19.776Z,1.90
2022-11-23T05:44:52.198Z,2.20
2022-11-23T05:47:26.125Z,1.70
2022-11-23T05:49:56.016Z,1.70
2022-11-23T05:52:28.359Z,1.70
2022-11-23T05:54:57.141Z,2.03
2022-11-23T05:57:34.582Z,1.73
2022-11-23T06:00:12.443Z,2.00
2022-11-23T06:03:00.855Z,1.90
2022-11-23T06:05:32.354Z,1.77
2022-11-23T06:08:01.036Z,1.80
2022-11-23T06:10:29.652Z,2.10
2022-11-23T06:13:04.021Z,2.30
2022-11-23T06:15:33.287Z,2.10
2022-11-23T06:18:02.352Z,2.23
2022-11-23T06:20:40.957Z,1.90
2022-11-23T06:23:09.197Z,1.80
2022-11-23T06:25:38.739Z,1.87
2022-11-23T06:28:13.205Z,1.80
2022-11-23T06:30:45.203Z,1.80
2022-11-23T06:33:14.710Z,1.70
2022-11-23T06:36:17.459Z,1.90
2022-11-23T06:38:50.077Z,2.03
2022-11-23T06:41:25.973Z,2.27
2022-11-23T06:43:57.806Z,2.07
2022-11-23T06:46:36.701Z,2.70
2022-11-23T06:49:04.786Z,1.80
2022-11-23T06:51:34.442Z,2.30
2022-11-23T06:54:02.830Z,2.00
2022-11-23T06:56:32.641Z,1.70
2022-11-23T06:59:01.070Z,1.50
2022-11-23T07:01:29.312Z,1.70
2022-11-23T07:04:03.295Z,2.37
2022-11-23T07:06:40.968Z,2.70
2022-11-23T07:09:16.199Z,2.10
2022-11-23T07:11:51.823Z,1.93
2022-11-23T07:14:20.085Z,2.30
2022-11-23T07:16:51.259Z,1.90
2022-11-23T07:19:20.254Z,2.97
2022-11-23T07:21:50.646Z,2.00
2022-11-23T07:24:18.892Z,2.17
2022-11-23T07:26:47.118Z,1.80
2022-11-23T07:29:15.958Z,2.13
2022-11-23T07:31:44.186Z,1.97
2022-11-23T07:34:12.622Z,3.03
2022-11-23T07:36:40.850Z,1.90
2022-11-23T07:39:10.781Z,2.00
2022-11-23T07:41:38.985Z,2.13
2022-11-23T07:44:14.979Z,2.53
2022-11-23T07:46:46.050Z,2.00
2022-11-23T07:49:14.208Z,1.80
2022-11-23T07:51:42.509Z,1.90
2022-11-23T07:54:12.257Z,1.40
2022-11-23T07:56:40.414Z,1.87
2022-11-23T07:59:08.647Z,1.97
2022-11-23T08:01:36.755Z,1.97
2022-11-23T08:04:05.096Z,1.83
2022-11-23T08:06:33.378Z,1.60
2022-11-23T08:09:01.920Z,1.87
2022-11-23T08:11:31.493Z,1.70
2022-11-23T08:14:00.164Z,2.07
2022-11-23T08:16:28.459Z,1.60
2022-11-23T08:18:56.779Z,1.73
2022-11-23T08:21:25.257Z,1.83
2022-11-23T08:23:53.531Z,2.00
2022-11-23T08:26:21.833Z,1.70
2022-11-23T08:28:51.611Z,1.50
2022-11-23T08:31:19.907Z,1.60
2022-11-23T08:33:47.990Z,1.70
2022-11-23T08:36:16.429Z,1.53
2022-11-23T08:38:44.663Z,1.50
2022-11-23T08:41:12.961Z,1.80
2022-11-23T08:43:41.501Z,1.40
2022-11-23T08:46:11.563Z,1.57
2022-11-23T08:48:39.835Z,1.90
2022-11-23T08:51:10.158Z,1.83
2022-11-23T08:53:39.152Z,1.97
2022-11-23T08:56:09.097Z,2.03
2022-11-23T08:58:38.089Z,1.77
2022-11-23T09:01:09.780Z,1.80
2022-11-23T09:03:39.811Z,1.83
2022-11-23T09:06:08.705Z,1.90
2022-11-23T09:08:37.416Z,2.37
2022-11-23T09:11:07.849Z,2.00
2022-11-23T09:13:37.169Z,2.00
2022-11-23T09:16:07.411Z,2.13
2022-11-23T09:18:36.799Z,1.80
2022-11-23T09:21:07.138Z,1.90
2022-11-23T09:23:35.513Z,2.20
2022-11-23T09:26:05.694Z,2.30
2022-11-23T09:28:34.688Z,2.00
2022-11-23T09:31:05.319Z,1.80
2022-11-23T09:33:33.586Z,2.40
2022-11-23T09:36:03.257Z,1.97
2022-11-23T09:38:55.243Z,2.23
2022-11-23T09:41:41.253Z,1.80
2022-11-23T09:44:19.869Z,2.00
2022-11-23T09:47:15.212Z,2.13
2022-11-23T09:49:54.068Z,2.20
2022-11-23T09:52:25.828Z,2.17
2022-11-23T09:55:00.063Z,2.30
2022-11-23T09:57:32.060Z,1.50
2022-11-23T10:00:04.162Z,1.90
2022-11-23T10:02:37.279Z,2.10
2022-11-23T10:05:06.647Z,1.80
2022-11-23T10:07:48.503Z,1.90
2022-11-23T10:10:36.023Z,2.00
2022-11-23T10:13:14.595Z,1.80
2022-11-23T10:15:54.466Z,2.20
2022-11-23T10:18:31.784Z,1.90
2022-11-23T10:21:07.649Z,1.80
2022-11-23T10:23:55.087Z,2.13
2022-11-23T10:26:30.426Z,2.07
2022-11-23T10:29:04.182Z,1.73
2022-11-23T10:31:32.747Z,1.60
2022-11-23T10:34:09.283Z,1.73
2022-11-23T10:36:37.984Z,1.87
2022-11-23T10:39:17.730Z,2.03
2022-11-23T10:41:47.925Z,2.00
2022-11-23T10:44:32.068Z,1.90
2022-11-23T10:47:01.117Z,1.90
2022-11-23T10:49:31.131Z,1.83
2022-11-23T10:52:04.139Z,2.20
2022-11-23T10:54:42.360Z,1.80
2022-11-23T10:57:31.404Z,1.60
2022-11-23T11:00:01.518Z,1.97
2022-11-23T11:02:30.856Z,2.30
2022-11-23T11:05:40.258Z,2.30
2022-11-23T11:08:15.797Z,2.30
2022-11-23T11:10:50.143Z,2.23
2022-11-23T11:13:30.006Z,1.90
2022-11-23T11:16:00.307Z,2.00
2022-11-23T11:18:30.954Z,1.53
2022-11-23T11:21:02.809Z,1.80
2022-11-23T11:23:32.545Z,1.93
2022-11-23T11:26:07.432Z,1.83
2022-11-23T11:28:44.421Z,2.93
2022-11-23T11:31:45.165Z,2.00
2022-11-23T11:34:21.386Z,2.03
2022-11-23T11:36:55.588Z,1.40
2022-11-23T11:39:30.042Z,1.80
2022-11-23T11:42:01.783Z,1.87
2022-11-23T11:44:37.507Z,1.83
2022-11-23T11:47:15.416Z,1.60
2022-11-23T11:49:49.956Z,1.60
2022-11-23T11:52:22.309Z,1.50
2022-11-23T11:54:56.885Z,1.30
2022-11-23T11:57:29.483Z,1.87
2022-11-23T12:00:06.762Z,1.60
2022-11-23T12:02:41.305Z,1.37
2022-11-23T12:05:19.061Z,1.20
2022-11-23T12:07:54.852Z,1.67
2022-11-23T12:10:45.072Z,1.37
2022-11-23T12:13:37.779Z,1.37
2022-11-23T12:16:41.006Z,1.03
2022-11-23T12:19:20.828Z,1.50
2022-11-23T12:22:26.151Z,1.70
2022-11-23T12:29:43.127Z,1.70
2022-11-23T12:33:01.057Z,2.13
2022-11-23T12:36:34.256Z,1.93
2022-11-23T12:39:15.704Z,1.73
2022-11-23T12:41:53.678Z,1.73
2022-11-23T12:45:02.232Z,1.53
2022-11-23T12:47:49.955Z,1.43
2022-11-23T12:50:31.827Z,1.40
2022-11-23T12:53:09.709Z,1.23
2022-11-23T12:55:48.245Z,1.67
2022-11-23T12:58:24.612Z,1.30
2022-11-23T13:00:56.445Z,1.30
2022-11-23T13:03:57.560Z,1.50
2022-11-23T13:07:27.438Z,1.10
2022-11-23T13:10:24.063Z,1.40
2022-11-23T13:13:12.460Z,1.40
2022-11-23T13:16:01.511Z,1.50
2022-11-23T13:18:45.386Z,1.30
2022-11-23T13:21:23.481Z,1.40
2022-11-23T13:23:55.359Z,1.70
2022-11-23T13:26:25.987Z,1.30
2022-11-23T13:28:58.452Z,1.40
2022-11-23T13:31:30.443Z,1.60
2022-11-23T13:34:00.963Z,1.60
2022-11-23T13:37:10.409Z,1.40
2022-11-23T13:40:08.142Z,1.30
2022-11-23T13:42:37.020Z,1.20
2022-11-23T13:45:36.884Z,1.20
2022-11-23T13:48:54.897Z,1.70
2022-11-23T13:51:11.096Z,1.60
2022-11-23T13:53:42.371Z,1.70
2022-11-23T13:56:23.954Z,1.77
2022-11-23T13:58:53.820Z,1.60
2022-11-23T14:02:01.141Z,1.40
2022-11-23T14:04:30.699Z,1.57
2022-11-23T14:07:03.774Z,1.50
2022-11-23T14:09:37.351Z,1.30
2022-11-23T14:12:14.328Z,1.50
2022-11-23T14:14:57.580Z,1.27
2022-11-23T14:17:51.912Z,1.70
2022-11-23T14:20:42.428Z,1.33
2022-11-23T14:23:48.974Z,1.43
2022-11-23T14:26:31.873Z,1.37
2022-11-23T14:29:32.415Z,1.20
2022-11-23T14:32:17.135Z,1.70
2022-11-23T14:34:56.818Z,1.30
2022-11-23T14:37:34.075Z,1.50
2022-11-23T14:40:14.265Z,1.40
2022-11-23T14:42:46.808Z,1.67
2022-11-23T14:45:16.772Z,2.17
2022-11-23T14:47:44.881Z,1.37
2022-11-23T14:50:25.553Z,1.60
2022-11-23T14:52:55.106Z,1.90
2022-11-23T14:55:26.166Z,1.70
2022-11-23T14:57:58.379Z,1.97
2022-11-23T15:00:32.012Z,2.00
2022-11-23T15:03:27.196Z,2.40
2022-11-23T15:06:12.840Z,2.30
2022-11-23T15:08:49.746Z,1.83
2022-11-23T15:11:22.337Z,2.03
2022-11-23T15:13:52.523Z,2.20
2022-11-23T15:16:22.416Z,2.20
2022-11-23T15:18:51.996Z,2.17
2022-11-23T15:21:27.540Z,2.10
2022-11-23T15:23:58.321Z,2.27
2022-11-23T15:26:47.296Z,2.60
2022-11-23T15:29:34.604Z,1.90
2022-11-23T15:32:29.263Z,2.53
2022-11-23T15:34:55.592Z,2.07
2022-11-23T15:37:27.170Z,2.30
2022-11-23T15:39:57.116Z,1.80
2022-11-23T15:42:27.295Z,1.93
2022-11-23T15:47:43.731Z,2.57
2022-11-23T15:50:15.145Z,2.33
2022-11-23T15:52:51.309Z,2.37
2022-11-23T15:54:53.525Z,1.90
2022-11-23T15:55:23.354Z,2.00
2022-11-23T15:58:09.640Z,2.10
2022-11-23T16:00:39.448Z,1.90
2022-11-23T16:03:32.077Z,2.27
2022-11-23T16:06:31.127Z,3.47
2022-11-23T16:14:11.278Z,3.00
2022-11-23T16:17:03.887Z,2.63
2022-11-23T16:20:13.356Z,2.20
2022-11-23T16:22:50.204Z,2.40
2022-11-23T16:25:26.012Z,2.97
2022-11-23T16:27:59.281Z,2.20
2022-11-23T16:30:37.217Z,2.80
2022-11-23T16:33:07.317Z,2.83
2022-11-23T16:35:35.619Z,2.40
2022-11-23T16:38:03.875Z,2.70
2022-11-23T16:40:32.403Z,2.43
2022-11-23T16:43:00.868Z,2.77
2022-11-23T16:45:32.235Z,3.20
2022-11-23T16:48:02.169Z,2.87
2022-11-23T16:50:31.769Z,2.70
2022-11-23T16:53:03.453Z,2.57
2022-11-23T16:55:31.877Z,2.53
2022-11-23T16:58:00.054Z,2.97
2022-11-23T17:00:28.946Z,1.93
2022-11-23T17:03:01.634Z,2.20
2022-11-23T17:05:29.808Z,2.30
2022-11-23T17:07:58.246Z,2.70
2022-11-23T17:10:26.799Z,2.23
2022-11-23T17:13:03.748Z,2.20
2022-11-23T17:15:38.737Z,2.40
2022-11-23T17:23:03.526Z,2.10
2022-11-23T17:25:31.464Z,3.03
2022-11-23T17:28:01.271Z,2.60
2022-11-23T17:30:29.825Z,2.40
2022-11-23T17:32:57.623Z,2.13
2022-11-23T17:35:25.858Z,2.10
2022-11-23T17:37:53.860Z,2.30
2022-11-23T17:40:24.571Z,2.60
2022-11-23T17:42:52.616Z,2.20
2022-11-23T17:45:20.764Z,2.30
2022-11-23T17:47:48.942Z,2.53
2022-11-23T17:50:19.479Z,2.30
2022-11-23T17:52:47.906Z,2.63
2022-11-23T17:55:16.774Z,3.23
2022-11-23T17:57:45.955Z,2.90
2022-11-23T18:00:17.981Z,2.70
2022-11-23T18:02:46.080Z,2.63
2022-11-23T18:05:17.972Z,2.30
2022-11-23T18:07:49.423Z,2.60
2022-11-23T18:10:17.633Z,2.47
2022-11-23T18:12:46.890Z,2.47
2022-11-23T18:15:14.774Z,2.60
2022-11-23T18:17:42.921Z,2.60
2022-11-23T18:20:11.683Z,2.50
2022-11-23T18:22:39.614Z,2.40
2022-11-23T18:25:08.005Z,2.23
2022-11-23T18:27:35.901Z,2.80
2022-11-23T18:30:10.616Z,2.60
2022-11-23T18:32:38.991Z,2.40
2022-11-23T18:35:09.354Z,2.50
2022-11-23T18:37:38.197Z,2.53
2022-11-23T18:40:07.525Z,2.50
2022-11-23T18:42:35.520Z,2.30
2022-11-23T18:45:05.189Z,2.47
2022-11-23T18:47:33.202Z,2.00
2022-11-23T18:50:06.153Z,2.50
2022-11-23T18:52:36.015Z,2.30
2022-11-23T18:55:04.556Z,2.27
2022-11-23T18:57:37.946Z,2.50
2022-11-23T19:00:10.160Z,2.47
2022-11-23T19:02:38.861Z,2.60
2022-11-23T19:05:07.772Z,2.30
2022-11-23T19:07:35.861Z,2.43
2022-11-23T19:10:03.893Z,2.10
2022-11-23T19:12:31.828Z,1.67
2022-11-23T19:15:00.196Z,2.00
2022-11-23T19:17:29.742Z,1.80
2022-11-23T19:19:58.026Z,2.00
2022-11-23T19:22:29.455Z,1.60
2022-11-23T19:24:57.594Z,1.83
2022-11-23T19:27:25.737Z,1.67
2022-11-23T19:29:53.922Z,1.30
2022-11-23T19:32:22.262Z,1.60
2022-11-23T19:34:51.830Z,1.60
2022-11-23T19:37:19.915Z,1.57
2022-11-23T19:39:48.043Z,2.00
2022-11-23T19:42:16.172Z,2.00
2022-11-23T19:44:44.544Z,1.60
2022-11-23T19:47:17.505Z,2.37
2022-11-23T19:49:48.120Z,1.63
2022-11-23T19:52:18.168Z,2.17
2022-11-23T19:54:47.237Z,2.00
2022-11-23T19:57:15.611Z,2.10
2022-11-23T19:59:43.726Z,2.03
2022-11-23T20:02:23.302Z,2.27
2022-11-23T20:04:51.945Z,2.40
2022-11-23T20:07:23.763Z,2.40
2022-11-23T20:09:51.745Z,2.53
2022-11-23T20:12:20.845Z,2.20
2022-11-23T20:14:48.971Z,2.10
2022-11-23T20:17:22.825Z,2.67
2022-11-23T20:19:58.801Z,2.57
2022-11-23T20:22:28.263Z,2.20
2022-11-23T20:24:56.344Z,2.70
2022-11-23T20:27:24.292Z,2.57
2022-11-23T20:29:52.195Z,2.53
2022-11-23T20:32:20.445Z,2.60
2022-11-23T20:34:48.815Z,2.90
2022-11-23T20:37:17.056Z,2.97
2022-11-23T20:39:46.657Z,2.57
2022-11-23T20:42:15.806Z,3.17
2022-11-23T20:44:44.523Z,3.23
2022-11-23T20:47:12.451Z,3.20
2022-11-23T20:49:40.635Z,3.23
2022-11-23T20:52:08.797Z,3.47
2022-11-23T20:54:36.981Z,3.50
2022-11-23T20:57:06.828Z,3.77
2022-11-23T20:59:35.198Z,3.53
2022-11-23T21:02:03.608Z,3.30
2022-11-23T21:04:31.937Z,3.00
2022-11-23T21:07:00.294Z,3.23
2022-11-23T21:09:28.290Z,3.30
2022-11-23T21:12:13.692Z,3.33
2022-11-23T21:14:43.223Z,3.90
2022-11-23T21:17:11.230Z,3.40
2022-11-23T21:19:40.825Z,3.60
2022-11-23T21:22:10.993Z,3.20
2022-11-23T21:24:39.227Z,3.77
2022-11-23T21:27:09.760Z,3.97
2022-11-23T21:29:38.093Z,3.83
2022-11-23T21:32:07.712Z,3.57
2022-11-23T21:34:36.125Z,3.57
2022-11-23T21:37:04.506Z,3.70
2022-11-23T21:39:33.236Z,3.67
2022-11-23T21:42:01.554Z,3.50
2022-11-23T21:44:29.837Z,4.20
2022-11-23T21:46:58.239Z,3.90
2022-11-23T21:49:28.788Z,3.37
2022-11-23T21:51:56.937Z,3.70
2022-11-23T21:54:26.073Z,3.57
2022-11-23T21:56:54.129Z,3.80
2022-11-23T21:59:23.239Z,4.03
2022-11-23T22:01:51.456Z,3.50
2022-11-23T22:04:19.617Z,3.27
2022-11-23T22:06:49.161Z,3.77
2022-11-23T22:09:17.510Z,3.77
2022-11-23T22:11:47.545Z,4.90
2022-11-23T22:14:19.405Z,3.70
2022-11-23T22:16:49.894Z,3.97
2022-11-23T22:19:19.027Z,3.70
2022-11-23T22:21:48.709Z,3.97
2022-11-23T22:24:19.022Z,4.03
2022-11-23T22:26:47.991Z,4.10
2022-11-23T22:29:17.068Z,4.37
2022-11-23T22:31:48.178Z,4.40
2022-11-23T22:34:17.045Z,4.50
2022-11-23T22:36:45.183Z,4.07
2022-11-23T22:39:14.799Z,4.00
2022-11-23T22:41:43.130Z,3.80
2022-11-23T22:44:11.592Z,3.97
2022-11-23T22:46:40.567Z,3.40
2022-11-23T22:49:08.724Z,3.13
2022-11-23T22:51:37.072Z,3.33
2022-11-23T22:54:05.654Z,4.10
2022-11-23T22:56:35.260Z,3.90
2022-11-23T22:59:03.510Z,3.50
2022-11-23T23:01:32.258Z,3.70
2022-11-23T23:04:03.905Z,3.50
2022-11-23T23:06:34.950Z,2.80
2022-11-23T23:09:06.082Z,3.17
2022-11-23T23:11:37.071Z,3.30
2022-11-23T23:14:05.495Z,3.33
2022-11-23T23:16:34.107Z,3.40
2022-11-23T23:19:03.583Z,4.03
2022-11-23T23:21:31.838Z,3.37
2022-11-23T23:24:01.395Z,3.60
2022-11-23T23:26:30.221Z,3.40
2022-11-23T23:29:00.976Z,3.30
2022-11-23T23:31:30.924Z,3.23
2022-11-23T23:34:00.668Z,3.30
2022-11-23T23:36:29.905Z,3.73
2022-11-23T23:38:58.677Z,3.27
2022-11-23T23:41:26.709Z,3.40
2022-11-23T23:43:54.662Z,3.83
2022-11-23T23:46:24.286Z,2.90
2022-11-23T23:48:52.631Z,3.80
2022-11-23T23:51:22.786Z,2.80
2022-11-23T23:54:00.096Z,3.30
2022-11-23T23:56:53.407Z,3.37
2022-11-23T23:59:30.063Z,3.30
